createdAt,value
2024-01-15T00:00:39.803Z,66783.22
2024-01-15T00:04:43.213Z,66779.81
2024-01-15T00:08:47.543Z,66781.13
2024-01-15T00:12:50.635Z,66779.28
2024-01-15T00:16:56.080Z,66785.34
2024-01-15T00:20:58.995Z,66778.47
2024-01-15T00:25:03.544Z,66787.75
2024-01-15T00:29:07.091Z,66791.78
2024-01-15T00:33:10.329Z,66784.19
2024-01-15T00:37:13.429Z,66782.66
2024-01-15T00:41:17.939Z,66776.19
2024-01-15T00:45:21.180Z,66786.47
2024-01-15T00:49:24.385Z,66788.31
2024-01-15T00:53:27.725Z,66789.44
2024-01-15T00:57:34.186Z,66788.88
2024-01-15T01:01:37.765Z,66790.91
2024-01-15T01:05:40.981Z,66796.22
2024-01-15T01:09:45.217Z,66798.50
2024-01-15T01:13:49.937Z,66796.38
2024-01-15T01:17:53.502Z,66794.25
2024-01-15T01:21:57.077Z,66801.88
2024-01-15T01:26:00.181Z,66799.19
2024-01-15T01:30:05.581Z,66807.91
2024-01-15T01:34:08.706Z,66805.25
2024-01-15T01:38:12.000Z,66810.03
2024-01-15T01:42:15.315Z,66813.75
2024-01-15T01:46:19.988Z,66809.38
2024-01-15T01:50:23.392Z,66816.97
2024-01-15T01:54:26.925Z,66815.44
2024-01-15T01:58:31.214Z,66812.03
2024-01-15T02:02:36.135Z,66816.56
2024-01-15T02:06:39.635Z,66817.69
2024-01-15T02:10:42.766Z,66808.09
2024-01-15T02:14:45.807Z,66808.66
2024-01-15T02:18:50.240Z,66810.91
2024-01-15T02:22:53.423Z,66812.03
2024-01-15T02:26:57.755Z,66813.16
2024-01-15T02:31:00.999Z,66819.81
2024-01-15T02:35:04.099Z,66812.63
2024-01-15T02:39:07.460Z,66813.56
2024-01-15T02:43:11.878Z,66815.13
2024-01-15T02:47:15.235Z,66807.50
2024-01-15T02:51:18.161Z,66808.66
2024-01-15T02:55:21.518Z,66807.50
2024-01-15T02:59:25.830Z,66805.25
2024-01-15T03:03:28.906Z,66808.25
2024-01-15T03:07:32.472Z,66812.03
2024-01-15T03:11:39.114Z,66816.41
2024-01-15T03:15:43.580Z,66814.88
2024-01-15T03:19:46.755Z,66814.31
2024-01-15T03:23:49.949Z,66816.16
2024-01-15T03:27:52.986Z,66824.47
2024-01-15T03:31:57.301Z,66822.94
2024-01-15T03:36:01.519Z,66824.47
2024-01-15T03:40:05.248Z,66826.59
2024-01-15T03:44:08.475Z,66826.00
2024-01-15T03:48:12.972Z,66818.69
2024-01-15T03:52:16.610Z,66821.50
2024-01-15T03:56:19.676Z,66825.28
2024-01-15T04:00:22.877Z,66817.88
2024-01-15T04:04:27.563Z,66818.81
2024-01-15T04:08:30.606Z,66821.66
2024-01-15T04:12:33.652Z,66827.16
2024-01-15T04:16:36.919Z,66827.16
2024-01-15T04:20:41.453Z,66825.59
2024-01-15T04:24:44.710Z,66831.66
2024-01-15T04:28:47.939Z,66829.41
2024-01-15T04:32:51.449Z,66829.25
2024-01-15T04:36:56.530Z,66829.00
2024-01-15T04:40:59.737Z,66828.59
2024-01-15T04:45:02.836Z,66838.31
2024-01-15T04:49:06.257Z,66842.56
2024-01-15T04:53:13.275Z,66839.19
2024-01-15T04:57:16.712Z,66830.72
2024-01-15T05:01:19.981Z,66833.53
2024-01-15T05:05:23.153Z,66833.22
2024-01-15T05:09:30.933Z,66828.44
2024-01-15T05:13:36.539Z,66831.25
2024-01-15T05:17:39.622Z,66829.91
2024-01-15T05:21:42.631Z,66837.91
2024-01-15T05:25:47.025Z,66832.97
2024-01-15T05:29:50.026Z,66832.38
2024-01-15T05:33:53.155Z,66835.78
2024-01-15T05:37:56.413Z,66836.78
2024-01-15T05:42:02.120Z,66840.31
2024-01-15T05:46:05.393Z,66846.38
2024-01-15T05:50:09.035Z,66842.03
2024-01-15T05:54:12.586Z,66825.19
2024-01-15T05:58:17.089Z,66813.75
2024-01-15T06:02:20.250Z,66807.09
2024-01-15T06:06:23.394Z,66818.50
2024-01-15T06:10:26.370Z,66815.84
2024-01-15T06:14:30.787Z,66825.28
2024-01-15T06:18:33.920Z,66815.44
2024-01-15T06:22:37.614Z,66816.72
2024-01-15T06:26:40.592Z,66819.94
2024-01-15T06:30:45.759Z,66819.22
2024-01-15T06:34:49.048Z,66823.19
2024-01-15T06:38:52.000Z,66822.78
2024-01-15T06:42:55.006Z,66816.88
2024-01-15T06:47:03.915Z,66823.91
2024-01-15T06:51:07.107Z,66828.28
2024-01-15T06:55:10.173Z,66831.25
2024-01-15T06:59:15.942Z,66824.78
2024-01-15T07:03:21.178Z,66826.50
2024-01-15T07:07:24.290Z,66828.59
2024-01-15T07:11:27.535Z,66825.94
2024-01-15T07:15:30.619Z,66831.25
2024-01-15T07:19:35.269Z,66831.25
2024-01-15T07:23:38.567Z,66833.53
2024-01-15T07:27:44.038Z,66836.91
2024-01-15T07:31:50.399Z,66840.31
2024-01-15T07:35:55.094Z,66841.84
2024-01-15T07:39:58.346Z,66841.13
2024-01-15T07:44:01.799Z,66826.59
2024-01-15T07:48:05.757Z,66814.16
2024-01-15T07:52:11.296Z,66799.59
2024-01-15T07:56:14.289Z,66796.63
2024-01-15T08:00:18.198Z,66797.75
2024-01-15T08:04:21.320Z,66799.38
2024-01-15T08:08:26.235Z,66810.75
2024-01-15T08:12:29.481Z,66809.78
2024-01-15T08:16:32.672Z,66813.44
2024-01-15T08:20:35.879Z,66804.69
2024-01-15T08:24:40.840Z,66804.53
2024-01-15T08:28:43.935Z,66798.50
2024-01-15T08:32:47.714Z,66797.38
2024-01-15T08:36:51.232Z,66801.56
2024-01-15T08:40:58.121Z,66799.31
2024-01-15T08:45:01.910Z,66792.25
2024-01-15T08:49:06.109Z,66789.44
2024-01-15T08:53:09.088Z,66786.22
2024-01-15T08:57:14.254Z,66782.25
2024-01-15T09:01:17.407Z,66786.06
2024-01-15T09:05:20.543Z,66790.97
2024-01-15T09:09:23.589Z,66791.13
2024-01-15T09:13:27.862Z,66793.41
2024-01-15T09:17:30.871Z,66797.38
2024-01-15T09:21:33.820Z,66796.22
2024-01-15T09:25:37.179Z,66810.03
2024-01-15T09:29:43.343Z,66803.72
2024-01-15T09:33:46.786Z,66806.38
2024-01-15T09:37:50.212Z,66807.91
2024-01-15T09:41:53.730Z,66807.50
2024-01-15T09:45:58.598Z,66810.91
2024-01-15T09:50:02.046Z,66811.31
2024-01-15T09:54:07.025Z,66814.16
2024-01-15T09:58:10.773Z,66805.84
2024-01-15T10:02:19.812Z,66805.97
2024-01-15T10:06:24.732Z,66795.09
2024-01-15T10:10:28.598Z,66787.19
2024-01-15T10:14:32.397Z,66796.63
2024-01-15T10:18:38.300Z,66796.22
2024-01-15T10:22:42.887Z,66804.13
2024-01-15T10:26:46.580Z,66805.84
2024-01-15T10:30:54.604Z,66799.91
2024-01-15T10:35:00.019Z,66807.50
2024-01-15T10:39:04.632Z,66816.56
2024-01-15T10:43:07.799Z,66817.69
2024-01-15T10:47:10.715Z,66821.09
2024-01-15T10:51:16.837Z,66827.88
2024-01-15T10:55:20.624Z,66833.13
2024-01-15T10:59:24.723Z,66835.78
2024-01-15T11:03:28.708Z,66836.38
2024-01-15T11:07:33.585Z,66840.31
2024-01-15T11:11:37.438Z,66843.28
2024-01-15T11:16:02.931Z,66849.34
2024-01-15T11:20:09.080Z,66852.34
2024-01-15T11:24:33.519Z,66859.13
2024-01-15T11:28:49.667Z,66896.28
2024-01-15T11:32:52.665Z,66888.94
2024-01-15T11:37:05.185Z,66904.78
2024-01-15T11:41:17.427Z,66976.09
2024-01-15T11:45:21.355Z,67016.84
2024-01-15T11:49:33.110Z,66997.19
2024-01-15T11:53:39.320Z,66990.28
2024-01-15T11:57:48.442Z,66943.97
2024-01-15T12:01:51.528Z,66908.75
2024-01-15T12:05:54.956Z,66907.63
2024-01-15T12:09:58.009Z,66898.31
2024-01-15T12:14:02.726Z,66901.69
2024-01-15T12:18:06.207Z,66910.44
2024-01-15T12:22:10.896Z,66921.19
2024-01-15T12:26:14.183Z,66907.53
2024-01-15T12:30:19.144Z,66924.00
2024-01-15T12:34:22.355Z,66919.50
2024-01-15T12:38:25.349Z,66924.00
2024-01-15T12:42:30.033Z,66918.34
2024-01-15T12:46:34.632Z,66909.31
2024-01-15T12:50:37.646Z,66891.22
2024-01-15T12:54:40.822Z,66888.22
2024-01-15T12:58:43.869Z,66888.06
2024-01-15T13:02:48.313Z,66889.81
2024-01-15T13:06:51.733Z,66887.41
2024-01-15T13:10:57.739Z,66896.16
2024-01-15T13:15:01.165Z,66897.69
2024-01-15T13:19:05.792Z,66897.56
2024-01-15T13:23:08.840Z,66892.66
2024-01-15T13:27:13.202Z,66908.16
2024-01-15T13:31:16.343Z,66902.50
2024-01-15T13:35:20.664Z,66891.22
2024-01-15T13:39:24.723Z,66880.22
2024-01-15T13:43:28.458Z,66870.59
2024-01-15T13:47:32.048Z,66858.25
2024-01-15T13:51:36.663Z,66839.19
2024-01-15T13:55:39.660Z,66842.56
2024-01-15T13:59:42.627Z,66843.28
2024-01-15T14:03:45.718Z,66858.41
2024-01-15T14:07:50.048Z,66861.06
2024-01-15T14:11:53.176Z,66850.50
2024-01-15T14:15:57.087Z,66841.03
2024-01-15T14:20:00.425Z,66837.81
2024-01-15T14:24:06.195Z,66838.06
2024-01-15T14:28:09.494Z,66835.22
2024-01-15T14:32:12.475Z,66839.59
2024-01-15T14:36:17.206Z,66831.97
2024-01-15T14:40:21.497Z,66826.50
2024-01-15T14:44:25.167Z,66836.59
2024-01-15T14:48:28.673Z,66833.22
2024-01-15T14:52:32.119Z,66828.44
2024-01-15T14:56:37.006Z,66833.69
2024-01-15T15:00:40.173Z,66829.81
2024-01-15T15:04:45.712Z,66821.66
2024-01-15T15:08:50.392Z,66818.28
2024-01-15T15:12:54.963Z,66808.66
2024-01-15T15:16:58.388Z,66799.59
2024-01-15T15:21:01.769Z,66794.25
2024-01-15T15:25:05.024Z,66797.75
2024-01-15T15:29:09.588Z,66793.41
2024-01-15T15:33:13.022Z,66793.97
2024-01-15T15:37:18.656Z,66794.53
2024-01-15T15:41:21.807Z,66793.84
2024-01-15T15:45:26.784Z,66801.88
2024-01-15T15:49:30.523Z,66806.38
2024-01-15T15:53:34.044Z,66804.44
2024-01-15T15:57:37.185Z,66812.03
2024-01-15T16:01:42.086Z,66817.69
2024-01-15T16:05:52.120Z,66819.41
2024-01-15T16:09:57.180Z,66816.56
2024-01-15T16:14:02.047Z,66814.47
2024-01-15T16:23:18.924Z,66818.28
2024-01-15T16:23:42.092Z,66816.88
2024-01-15T16:26:54.642Z,66813.16
2024-01-15T16:31:02.303Z,66816.41
2024-01-15T16:35:09.768Z,66809.94
2024-01-15T16:39:12.958Z,66808.09
2024-01-15T16:43:16.732Z,66799.59
2024-01-15T16:47:19.935Z,66796.22
2024-01-15T16:51:25.218Z,66796.22
2024-01-15T16:55:28.363Z,66791.53
2024-01-15T16:59:31.657Z,66780.09
2024-01-15T17:03:35.363Z,66773.78
2024-01-15T17:07:39.783Z,66772.91
2024-01-15T17:11:43.031Z,66766.84
2024-01-15T17:15:46.599Z,66760.06
2024-01-15T17:19:49.705Z,66762.31
2024-01-15T17:23:54.224Z,66754.41
2024-01-15T17:27:57.284Z,66754.97
2024-01-15T17:32:00.474Z,66751.03
2024-01-15T17:36:03.643Z,66762.47
2024-01-15T17:40:09.101Z,66762.31
2024-01-15T17:44:12.364Z,66775.16
2024-01-15T17:48:15.816Z,66771.50
2024-01-15T17:52:18.842Z,66772.09
2024-01-15T17:56:23.483Z,66771.91
2024-01-15T18:00:26.474Z,66771.78
2024-01-15T18:04:29.893Z,66757.81
2024-01-15T18:08:33.287Z,66767.97
2024-01-15T18:12:37.882Z,66754.72
2024-01-15T18:16:40.846Z,66763.44
2024-01-15T18:20:44.003Z,66762.16
2024-01-15T18:24:47.297Z,66755.53
2024-01-15T18:28:51.654Z,66756.66
2024-01-15T18:32:54.847Z,66743.69
2024-01-15T18:36:58.012Z,66740.84
2024-01-15T18:41:03.517Z,66739.00
2024-01-15T18:45:08.857Z,66739.72
2024-01-15T18:49:12.398Z,66732.94
2024-01-15T18:53:15.421Z,66721.41
2024-01-15T18:57:18.404Z,66722.78
2024-01-15T19:01:30.617Z,66729.22
2024-01-15T19:05:33.739Z,66727.28
2024-01-15T19:09:37.138Z,66723.91
2024-01-15T19:13:40.273Z,66728.41
2024-01-15T19:17:46.299Z,66733.75
2024-01-15T19:21:51.203Z,66732.38
2024-01-15T19:25:54.435Z,66732.94
2024-01-15T19:29:57.315Z,66745.38
2024-01-15T19:34:01.625Z,66756.34
2024-01-15T19:38:06.233Z,66764.97
2024-01-15T19:42:09.252Z,66761.19
2024-01-15T19:46:12.371Z,66764.59
2024-01-15T19:50:16.720Z,66761.34
2024-01-15T19:54:20.616Z,66762.00
2024-01-15T19:58:23.712Z,66762.88
2024-01-15T20:02:27.546Z,66761.44
2024-01-15T20:06:32.100Z,66747.63
2024-01-15T20:10:35.500Z,66743.69
2024-01-15T20:14:38.677Z,66738.59
2024-01-15T20:18:43.303Z,66733.34
2024-01-15T20:22:47.936Z,66734.31
2024-01-15T20:26:50.903Z,66727.28
2024-01-15T20:30:53.886Z,66722.78
2024-01-15T20:34:56.845Z,66738.59
2024-01-15T20:39:01.228Z,66744.81
2024-01-15T20:43:05.767Z,66746.91
2024-01-15T20:47:09.530Z,66754.66
2024-01-15T20:51:13.074Z,66762.88
2024-01-15T20:55:17.609Z,66767.56
2024-01-15T20:59:20.881Z,66766.84
2024-01-15T21:03:24.592Z,66773.78
2024-01-15T21:07:29.181Z,66780.97
2024-01-15T21:11:33.677Z,66780.97
2024-01-15T21:15:37.010Z,66784.94
2024-01-15T21:19:40.213Z,66797.03
2024-01-15T21:23:43.368Z,66793.66
2024-01-15T21:27:47.971Z,66792.84
2024-01-15T21:31:51.300Z,66791.44
2024-01-15T21:35:54.437Z,66792.59
2024-01-15T21:39:57.453Z,66796.38
2024-01-15T21:44:07.613Z,66800.72
2024-01-15T21:48:10.874Z,66805.66
2024-01-15T21:52:13.965Z,66796.13
2024-01-15T21:56:17.495Z,66796.53
2024-01-15T22:00:22.352Z,66799.59
2024-01-15T22:04:25.654Z,66800.72
2024-01-15T22:08:29.075Z,66799.91
2024-01-15T22:12:32.305Z,66808.50
2024-01-15T22:16:37.544Z,66796.69
2024-01-15T22:20:41.152Z,66805.25
2024-01-15T22:24:44.221Z,66803.56
2024-01-15T22:28:47.330Z,66803.56
2024-01-15T22:32:51.860Z,66808.50
2024-01-15T22:36:54.939Z,66803.41
2024-01-15T22:40:57.957Z,66799.59
2024-01-15T22:45:01.083Z,66796.94
2024-01-15T22:49:05.922Z,66800.72
2024-01-15T22:53:08.933Z,66801.63
2024-01-15T22:57:12.147Z,66807.09
2024-01-15T23:01:16.647Z,66808.66
2024-01-15T23:05:21.748Z,66801.06
2024-01-15T23:09:25.850Z,66808.66
2024-01-15T23:13:28.759Z,66809.38
2024-01-15T23:17:33.173Z,66813.03
2024-01-15T23:21:37.589Z,66809.78
2024-01-15T23:25:40.580Z,66806.38
2024-01-15T23:29:43.847Z,66811.88
2024-01-15T23:33:46.950Z,66804.44
2024-01-15T23:37:51.215Z,66807.09
2024-01-15T23:41:54.174Z,66809.78
2024-01-15T23:46:02.669Z,66801.47
2024-01-15T23:50:13.704Z,66801.88
2024-01-15T23:54:18.834Z,66794.84
2024-01-15T23:58:22.223Z,66797.38
